Time;durP1;ratioP1;P1;durP2;ratioP2;P2;SDS_P1;SDS_P2;PMS_P1;PMS_P2;Temp;Humidity;BMP_temperature;BMP_pressure;BME280_temperature;BME280_humidity;BME280_pressure;Samples;Min_cycle;Max_cycle;Signal;HPM_P1;HPM_P2
2022/12/25 00:01:07;;;;;;;3.13;2.78;;;;;;;3.10;100.00;100422.97;6304159;22;20136;-90
2022/12/25 00:03:33;;;;;;;4.35;2.53;;;;;;;3.23;100.00;100451.69;6276742;22;20060;-91
2022/12/25 00:05:58;;;;;;;3.38;2.17;;;;;;;3.20;100.00;100450.47;6250667;22;20459;-90
2022/12/25 00:08:24;;;;;;;6.07;2.70;;;;;;;3.03;100.00;100428.38;6304132;22;19999;-90
2022/12/25 00:11:03;;;;;;;1.60;1.50;;;;;;;3.15;100.00;100452.78;6251116;22;20011;-90
2022/12/25 00:13:29;;;;;;;6.25;4.65;;;;;;;3.15;100.00;100453.56;6249067;22;20034;-92
2022/12/25 00:15:55;;;;;;;4.25;3.95;;;;;;;3.11;100.00;100457.44;6302675;22;20120;-90
2022/12/25 00:18:21;;;;;;;3.85;3.13;;;;;;;2.86;100.00;100418.03;6248591;22;20015;-90
2022/12/25 00:20:58;;;;;;;1.27;1.17;;;;;;;2.86;100.00;100418.03;6274873;22;20012;-91
2022/12/25 00:23:24;;;;;;;2.63;2.47;;;;;;;2.93;100.00;100440.00;6250002;22;20019;-92
2022/12/25 00:25:49;;;;;;;2.22;2.13;;;;;;;2.96;100.00;100439.25;6274266;22;20003;-90
2022/12/25 00:28:15;;;;;;;5.07;3.78;;;;;;;2.91;100.00;100431.41;6248256;22;20468;-90
2022/12/25 00:30:40;;;;;;;1.05;1.05;;;;;;;2.93;100.00;100445.50;6300344;22;20011;-90
2022/12/25 00:33:06;;;;;;;4.45;2.42;;;;;;;2.88;100.00;100432.91;6275361;22;20462;-90
2022/12/25 00:35:32;;;;;;;1.45;1.38;;;;;;;2.88;100.00;100441.13;6249143;22;20003;-89
2022/12/25 00:37:57;;;;;;;6.65;2.55;;;;;;;2.96;100.00;100444.72;6274814;22;20007;-89
2022/12/25 00:40:23;;;;;;;2.83;2.10;;;;;;;2.91;100.00;100442.34;6250451;22;20247;-90
2022/12/25 00:42:49;;;;;;;1.08;0.93;;;;;;;3.04;100.00;100460.09;6248171;22;20018;-89
2022/12/25 00:45:15;;;;;;;4.47;2.88;;;;;;;2.86;100.00;100434.47;6274903;22;20348;-90
2022/12/25 00:47:40;;;;;;;1.73;1.63;;;;;;;2.90;100.00;100447.03;6274511;22;20076;-89
2022/12/25 00:50:07;;;;;;;3.15;2.00;;;;;;;2.96;100.00;100455.69;6301460;22;20406;-90
2022/12/25 00:52:32;;;;;;;2.50;2.15;;;;;;;3.06;100.00;100471.47;6303491;22;20011;-90
2022/12/25 00:54:58;;;;;;;3.40;3.08;;;;;;;2.87;100.00;100442.31;6249369;22;20019;-90
2022/12/25 00:57:24;;;;;;;3.90;2.17;;;;;;;3.00;100.00;100468.28;6301567;22;20041;-89
2022/12/25 00:59:49;;;;;;;0.75;0.75;;;;;;;2.99;100.00;100466.72;6302314;22;20013;-91
2022/12/25 01:02:24;;;;;;;7.25;2.30;;;;;;;3.11;100.00;100468.41;6248560;22;20000;-90
2022/12/25 01:04:51;;;;;;;3.63;3.33;;;;;;;3.03;100.00;100466.75;6226096;22;20015;-89
2022/12/25 01:07:17;;;;;;;3.22;2.40;;;;;;;3.16;100.00;100476.28;6278183;22;20004;-90
2022/12/25 01:12:29;;;;;;;2.90;2.63;;;;;;;3.17;100.00;100472.38;6275875;22;20344;-89
2022/12/25 01:14:55;;;;;;;4.47;2.65;;;;;;;3.23;100.00;100482.63;6277315;22;20086;-90
2022/12/25 01:17:20;;;;;;;3.25;2.38;;;;;;;3.23;100.00;100473.63;6303874;22;20033;-90
2022/12/25 01:19:46;;;;;;;3.67;3.38;;;;;;;3.21;100.00;100467.72;6249666;22;20011;-90
2022/12/25 01:22:12;;;;;;;5.00;4.50;;;;;;;3.19;100.00;100467.31;6278307;22;19999;-91
2022/12/25 01:24:38;;;;;;;1.23;1.20;;;;;;;3.15;100.00;100458.28;6227716;22;20035;-90
2022/12/25 01:27:04;;;;;;;2.85;2.58;;;;;;;3.12;100.00;100456.25;6275438;22;20068;-90
2022/12/25 01:29:29;;;;;;;1.45;1.38;;;;;;;3.08;100.00;100458.97;6250491;22;20123;-90
2022/12/25 01:31:55;;;;;;;3.15;2.83;;;;;;;3.10;100.00;100455.84;6249784;22;20056;-90
2022/12/25 01:34:20;;;;;;;3.75;3.45;;;;;;;3.07;100.00;100451.94;6251024;22;20072;-90
2022/12/25 01:36:46;;;;;;;3.92;1.88;;;;;;;3.28;100.00;100486.97;6250474;22;20344;-90
2022/12/25 01:39:11;;;;;;;5.38;2.38;;;;;;;3.06;100.00;100455.81;6250771;22;20024;-90
2022/12/25 01:41:37;;;;;;;2.35;2.22;;;;;;;3.17;100.00;100477.84;6302535;22;20005;-91
2022/12/25 01:44:15;;;;;;;3.58;1.42;;;;;;;3.21;100.00;100484.94;6278248;22;20011;-90
2022/12/25 01:46:42;;;;;;;5.82;3.90;;;;;;;3.21;100.00;100493.19;6278153;22;20050;-89
2022/12/25 01:49:11;;;;;;;3.63;2.50;;;;;;;3.09;100.00;100479.75;6253011;22;20042;-89
2022/12/25 01:51:43;;;;;;;1.67;1.55;;;;;;;3.18;100.00;100495.88;6303642;22;20431;-90
2022/12/25 01:54:16;;;;;;;2.78;2.42;;;;;;;3.16;100.00;100488.03;6277467;22;20027;-90
2022/12/25 01:56:43;;;;;;;1.63;1.52;;;;;;;2.98;100.00;100467.09;6274645;22;20015;-91
2022/12/25 01:59:09;;;;;;;5.55;2.28;;;;;;;2.95;100.00;100474.13;6275805;22;20060;-91
2022/12/25 03:17:21;;;;;;;3.13;2.92;;;;;;;2.52;100.00;100456.38;6305696;22;20043;-94
2022/12/25 04:39:51;;;;;;;0.73;0.73;;;;;;;2.82;100.00;100456.34;6306128;22;20015;-95
2022/12/25 04:42:17;;;;;;;1.55;1.45;;;;;;;2.80;100.00;100464.13;6256013;22;20019;-96
2022/12/25 04:44:44;;;;;;;1.85;1.75;;;;;;;2.80;100.00;100470.41;6282880;22;19999;-96
2022/12/25 04:47:13;;;;;;;2.63;1.20;;;;;;;2.71;100.00;100461.69;6309059;22;20033;-96
2022/12/25 05:13:59;;;;;;;1.40;1.40;;;;;;;2.65;100.00;100484.31;6308475;22;19999;-96
2022/12/25 05:22:12;;;;;;;5.32;3.20;;;;;;;2.56;100.00;100486.53;6305082;22;20022;-96
2022/12/25 05:25:08;;;;;;;2.40;2.28;;;;;;;2.58;100.00;100495.97;6252450;22;20019;-96
2022/12/25 05:27:37;;;;;;;2.00;1.80;;;;;;;2.52;100.00;100499.41;6273157;22;20021;-96
2022/12/25 05:30:03;;;;;;;2.15;2.00;;;;;;;2.71;100.00;100524.69;6244204;22;20060;-96
2022/12/25 05:32:30;;;;;;;1.33;1.27;;;;;;;2.87;100.00;100551.13;6249886;22;20015;-96
2022/12/25 05:34:59;;;;;;;1.17;1.15;;;;;;;2.72;100.00;100512.59;6252787;22;19999;-95
2022/12/25 05:37:25;;;;;;;0.30;0.30;;;;;;;2.57;100.00;100486.19;6253282;22;20015;-96
2022/12/25 05:39:51;;;;;;;1.40;1.30;;;;;;;2.60;100.00;100490.91;6250944;22;20055;-95
2022/12/25 06:22:45;;;;;;;1.75;1.63;;;;;;;2.34;100.00;100508.19;6317955;22;20353;-95
2022/12/25 06:25:16;;;;;;;1.73;1.63;;;;;;;2.34;100.00;100505.44;6211736;22;20020;-96
2022/12/25 06:27:47;;;;;;;1.88;1.77;;;;;;;2.56;100.00;100531.16;6254378;22;20338;-94
2022/12/25 06:30:13;;;;;;;1.77;1.67;;;;;;;2.68;100.00;100539.13;6243496;22;20004;-94
2022/12/25 06:32:38;;;;;;;2.17;2.05;;;;;;;2.77;100.00;100531.44;6218190;22;20398;-93
2022/12/25 06:35:04;;;;;;;9.00;5.25;;;;;;;2.76;100.00;100534.53;6244028;22;20003;-94
2022/12/25 06:37:30;;;;;;;1.52;1.38;;;;;;;2.76;100.00;100527.13;6220079;22;20031;-94
2022/12/25 06:39:56;;;;;;;2.35;2.15;;;;;;;2.88;100.00;100541.72;6195130;22;20018;-94
2022/12/25 06:42:22;;;;;;;1.23;1.15;;;;;;;2.94;100.00;100540.25;6219883;22;20000;-93
2022/12/25 06:44:48;;;;;;;2.80;2.60;;;;;;;2.96;100.00;100532.44;6222022;22;20035;-95
2022/12/25 06:47:16;;;;;;;13.95;4.40;;;;;;;2.91;100.00;100519.09;6211517;22;20045;-95
2022/12/25 06:49:42;;;;;;;3.70;3.33;;;;;;;2.79;100.00;100512.66;6218576;22;20012;-96
2022/12/25 06:52:10;;;;;;;10.02;4.57;;;;;;;2.83;100.00;100517.41;6245696;22;20107;-96
2022/12/25 06:54:36;;;;;;;3.78;2.78;;;;;;;2.83;100.00;100518.97;6242386;22;20004;-95
2022/12/25 06:57:02;;;;;;;6.25;3.15;;;;;;;2.90;100.00;100528.44;6219236;22;20027;-96
2022/12/25 06:59:28;;;;;;;2.92;2.67;;;;;;;2.93;100.00;100519.47;6219348;22;20000;-96
2022/12/25 07:01:57;;;;;;;3.00;2.80;;;;;;;2.95;100.00;100528.13;6237266;23;20008;-95
2022/12/25 07:04:30;;;;;;;2.53;2.08;;;;;;;2.97;100.00;100528.53;6213085;23;20064;-96
2022/12/25 07:06:57;;;;;;;12.30;5.78;;;;;;;3.15;100.00;100562.44;6238151;23;20019;-93
2022/12/25 07:09:23;;;;;;;3.75;3.45;;;;;;;3.19;100.00;100557.78;6216616;23;20430;-94
2022/12/25 07:11:49;;;;;;;4.63;4.22;;;;;;;3.04;100.00;100534.09;6242174;23;20032;-93
2022/12/25 07:14:20;;;;;;;6.72;6.10;;;;;;;3.25;100.00;100567.22;6216419;23;20019;-93
2022/12/25 07:16:45;;;;;;;11.00;6.40;;;;;;;3.24;100.00;100560.97;6216708;23;20011;-94
2022/12/25 07:19:11;;;;;;;6.65;3.97;;;;;;;3.14;100.00;100556.16;6165866;23;20012;-92
2022/12/25 07:21:36;;;;;;;5.53;4.70;;;;;;;3.24;100.00;100576.59;6191821;23;20050;-93
2022/12/25 07:24:02;;;;;;;10.05;8.05;;;;;;;3.07;100.00;100547.84;6225552;22;20376;-94
2022/12/25 07:26:28;;;;;;;4.57;3.25;;;;;;;3.13;100.00;100556.53;6247070;22;20011;-93
2022/12/25 07:28:54;;;;;;;5.18;4.25;;;;;;;3.19;100.00;100569.53;6273991;22;20039;-95
2022/12/25 07:31:20;;;;;;;4.75;4.25;;;;;;;3.15;100.00;100565.16;6247305;22;20007;-93
2022/12/25 07:33:46;;;;;;;3.15;2.90;;;;;;;3.07;100.00;100549.81;6246292;22;20003;-94
2022/12/25 07:36:12;;;;;;;3.92;3.60;;;;;;;3.20;100.00;100559.34;6247027;22;20015;-94
2022/12/25 07:38:37;;;;;;;1.70;1.60;;;;;;;3.41;100.00;100587.00;6222084;22;20039;-93
2022/12/25 07:41:03;;;;;;;2.85;2.53;;;;;;;3.28;100.00;100566.47;6247269;22;19999;-94
2022/12/25 07:43:29;;;;;;;2.85;2.53;;;;;;;3.41;100.00;100570.53;6251127;22;20094;-93
2022/12/25 07:45:58;;;;;;;2.63;2.42;;;;;;;3.52;100.00;100582.41;6221732;22;20043;-93
2022/12/25 07:48:27;;;;;;;1.73;1.63;;;;;;;3.60;100.00;100580.56;6246601;22;20018;-93
2022/12/25 07:50:58;;;;;;;5.00;3.45;;;;;;;3.68;100.00;100585.72;6221489;22;20444;-95
2022/12/25 07:53:24;;;;;;;3.15;2.60;;;;;;;3.67;100.00;100581.41;6273591;22;20027;-93
2022/12/25 07:56:09;;;;;;;3.67;3.05;;;;;;;3.80;100.00;100586.63;6221425;22;20258;-94
2022/12/25 07:58:34;;;;;;;2.38;2.17;;;;;;;3.74;100.00;100578.72;6222009;22;20020;-95
2022/12/25 08:01:07;;;;;;;4.53;1.98;;;;;;;3.81;100.00;100582.69;6221149;22;20003;-94
2022/12/25 08:03:37;;;;;;;4.38;3.97;;;;;;;3.61;100.00;100566.44;6238468;22;20016;-96
2022/12/25 08:06:34;;;;;;;2.33;2.13;;;;;;;3.86;100.00;100607.84;6225650;22;20004;-96
2022/12/25 08:09:09;;;;;;;9.52;3.25;;;;;;;3.72;100.00;100580.28;6248403;22;20027;-96
2022/12/25 08:11:46;;;;;;;3.78;3.47;;;;;;;3.78;100.00;100577.97;6254280;22;20028;-95
2022/12/25 08:14:23;;;;;;;2.13;2.03;;;;;;;3.84;100.00;100576.47;6254892;22;20018;-96
2022/12/25 08:17:11;;;;;;;3.92;3.22;;;;;;;3.96;100.00;100587.16;6227170;22;20027;-96
2022/12/25 08:20:04;;;;;;;1.83;1.73;;;;;;;4.36;100.00;100636.53;6281538;22;20030;-96
2022/12/25 08:22:31;;;;;;;1.73;1.63;;;;;;;4.27;100.00;100616.81;6205538;22;20341;-92
2022/12/25 08:24:56;;;;;;;0.80;0.80;;;;;;;4.39;100.00;100619.28;6216315;23;20051;-96
2022/12/25 08:27:22;;;;;;;2.55;2.38;;;;;;;4.56;100.00;100635.09;6190911;23;20012;-94
2022/12/25 08:29:47;;;;;;;2.80;2.45;;;;;;;4.78;100.00;100646.22;6216243;23;20434;-95
2022/12/25 08:32:13;;;;;;;2.08;1.58;;;;;;;4.88;100.00;100643.56;6190170;23;20443;-96
2022/12/25 08:34:38;;;;;;;2.55;1.92;;;;;;;5.05;100.00;100642.09;6191053;23;20009;-95
2022/12/25 08:37:04;;;;;;;2.90;2.65;;;;;;;5.05;100.00;100628.34;6216811;23;20012;-95
2022/12/25 08:39:30;;;;;;;2.55;2.35;;;;;;;5.33;100.00;100646.94;6190511;23;20323;-95
2022/12/25 08:41:55;;;;;;;2.47;1.95;;;;;;;5.32;100.00;100635.13;6191247;23;20012;-95
2022/12/25 08:44:21;;;;;;;2.97;2.67;;;;;;;5.36;100.00;100621.38;6191335;23;20003;-95
2022/12/25 08:46:46;;;;;;;3.78;3.45;;;;;;;5.57;100.00;100647.03;6215850;23;20070;-93
2022/12/25 08:49:12;;;;;;;3.97;2.42;;;;;;;5.48;100.00;100630.09;6216771;23;20024;-93
2022/12/25 08:51:37;;;;;;;4.85;2.25;;;;;;;5.54;100.00;100634.03;6191624;23;20011;-93
2022/12/25 08:54:06;;;;;;;1.63;1.52;;;;;;;5.61;100.00;100623.06;6216387;23;20008;-94
2022/12/25 08:56:31;;;;;;;1.52;1.42;;;;;;;5.60;100.00;100621.47;6190978;23;20043;-93
2022/12/25 08:58:57;;;;;;;2.50;1.30;;;;;;;5.62;100.00;100624.59;6190866;23;20012;-94
2022/12/25 09:01:22;;;;;;;1.10;0.88;;;;;;;5.67;100.00;100633.66;6193006;23;20070;-93
2022/12/25 09:03:48;;;;;;;2.17;2.00;;;;;;;5.74;100.00;100617.19;6190677;23;20087;-95
2022/12/25 09:06:15;;;;;;;3.45;2.60;;;;;;;5.74;100.00;100625.44;6216224;23;20446;-94
2022/12/25 09:08:41;;;;;;;3.80;1.65;;;;;;;5.95;100.00;100636.50;6191355;23;20046;-94
2022/12/25 09:11:09;;;;;;;7.00;2.58;;;;;;;6.01;100.00;100634.97;6190849;23;20450;-94
2022/12/25 09:13:35;;;;;;;2.53;2.33;;;;;;;5.86;100.00;100612.13;6191092;23;20024;-95
2022/12/25 09:16:09;;;;;;;6.78;4.22;;;;;;;5.91;100.00;100608.19;6190486;23;20020;-95
2022/12/25 09:18:35;;;;;;;4.70;3.35;;;;;;;6.15;100.00;100639.69;6192404;23;20019;-92
2022/12/25 09:21:02;;;;;;;3.13;2.63;;;;;;;6.36;100.00;100640.47;6216949;23;20087;-93
2022/12/25 09:23:28;;;;;;;4.32;3.00;;;;;;;6.20;100.00;100598.75;6194575;23;20012;-93
2022/12/25 09:25:54;;;;;;;0.93;0.80;;;;;;;6.46;100.00;100644.44;6216007;23;20073;-95
2022/12/25 09:28:20;;;;;;;7.40;4.05;;;;;;;6.29;100.00;100618.44;6217256;23;20439;-94
2022/12/25 09:30:50;;;;;;;2.47;2.28;;;;;;;6.49;100.00;100665.69;6242703;23;20087;-94
2022/12/25 09:33:15;;;;;;;2.05;1.90;;;;;;;6.44;100.00;100646.78;6242083;23;20094;-94
2022/12/25 09:35:41;;;;;;;3.42;3.13;;;;;;;6.35;100.00;100649.16;6217706;23;20043;-93
2022/12/25 09:38:07;;;;;;;4.00;3.45;;;;;;;6.13;100.00;100607.03;6246172;22;20008;-92
2022/12/25 09:40:33;;;;;;;6.35;1.40;;;;;;;6.18;100.00;100634.19;6217833;23;20016;-94
2022/12/25 09:42:59;;;;;;;5.88;2.70;;;;;;;6.28;100.00;100644.41;6217673;23;20326;-95
2022/12/25 09:45:28;;;;;;;2.08;1.95;;;;;;;6.31;100.00;100645.63;6241743;23;20311;-94
2022/12/25 09:47:57;;;;;;;3.85;1.65;;;;;;;6.43;100.00;100650.72;6192777;23;20019;-94
2022/12/25 09:50:47;;;;;;;3.28;2.97;;;;;;;6.40;100.00;100640.47;6191645;23;20012;-95
2022/12/25 09:53:22;;;;;;;4.55;4.13;;;;;;;6.43;100.00;100634.19;6218158;23;20012;-94
2022/12/25 09:56:18;;;;;;;4.57;3.95;;;;;;;6.43;100.00;100640.47;6192712;23;20095;-94
2022/12/25 09:58:47;;;;;;;2.17;2.08;;;;;;;6.42;100.00;100640.88;6196566;23;20026;-94
2022/12/25 10:01:13;;;;;;;2.55;2.35;;;;;;;6.55;100.00;100651.09;6241530;23;20079;-94
2022/12/25 10:03:47;;;;;;;4.65;4.05;;;;;;;6.68;100.00;100661.72;6245130;23;20012;-94
2022/12/25 10:06:46;;;;;;;1.98;1.88;;;;;;;6.51;100.00;100636.53;6276556;22;20023;-94
2022/12/25 10:09:30;;;;;;;4.80;1.67;;;;;;;6.75;100.00;100667.25;6194135;23;20016;-95
2022/12/25 10:12:14;;;;;;;5.32;4.57;;;;;;;6.80;100.00;100661.31;6192586;23;20431;-94
2022/12/25 10:14:45;;;;;;;;;;;;;;;6.81;100.00;100666.44;6244268;22;20450;-94
2022/12/25 10:17:35;;;;;;;3.95;2.83;;;;;;;6.77;100.00;100662.91;6245231;23;19919;-95
2022/12/25 10:20:04;;;;;;;2.03;1.70;;;;;;;6.90;100.00;100664.06;6242409;23;20016;-94
2022/12/25 10:22:36;;;;;;;2.78;2.00;;;;;;;6.95;100.00;100660.91;6217605;23;20012;-96
2022/12/25 10:25:05;;;;;;;3.85;2.67;;;;;;;6.75;100.00;100623.13;6247446;22;20094;-94
2022/12/25 10:27:34;;;;;;;2.50;2.05;;;;;;;6.84;100.00;100645.53;6248177;22;20042;-94
2022/12/25 10:30:00;;;;;;;12.25;3.13;;;;;;;6.95;100.00;100649.09;6247112;22;20012;-94
2022/12/25 10:32:26;;;;;;;2.55;1.90;;;;;;;6.94;100.00;100630.97;6220258;22;20069;-92
2022/12/25 10:34:52;;;;;;;2.10;1.92;;;;;;;6.86;100.00;100619.16;6250119;22;20027;-92
2022/12/25 10:37:18;;;;;;;4.07;3.55;;;;;;;7.07;100.00;100651.44;6249075;22;20004;-94
2022/12/25 10:39:43;;;;;;;3.38;3.08;;;;;;;6.95;100.00;100607.72;6196840;22;20071;-93
2022/12/25 10:42:41;;;;;;;2.20;2.10;;;;;;;7.11;100.00;100635.66;6221062;22;20468;-94
2022/12/25 10:45:08;;;;;;;3.72;3.38;;;;;;;6.95;100.00;100627.03;6246688;22;20018;-93
2022/12/25 10:47:41;;;;;;;1.98;1.63;;;;;;;6.88;100.00;100597.47;6219670;22;20073;-94
2022/12/25 10:50:23;;;;;;;4.57;2.17;;;;;;;6.85;100.00;100600.25;6245418;22;20553;-96
2022/12/25 10:53:03;;;;;;;4.97;3.95;;;;;;;6.94;100.00;100615.19;6220344;22;20584;-92
2022/12/25 10:55:29;;;;;;;1.67;1.58;;;;;;;6.72;100.00;100593.56;6248283;22;20107;-94
2022/12/25 10:57:56;;;;;;;4.15;3.42;;;;;;;6.74;100.00;100583.75;6220466;22;20035;-95
2022/12/25 11:00:27;;;;;;;3.80;2.03;;;;;;;6.90;100.00;100597.09;6219826;22;20015;-94
2022/12/25 11:02:53;;;;;;;1.27;1.20;;;;;;;6.93;100.00;100590.78;6247589;22;20007;-94
2022/12/25 11:05:30;;;;;;;2.83;2.55;;;;;;;6.92;100.00;100559.63;6246743;22;20042;-93
2022/12/25 11:07:58;;;;;;;4.88;3.67;;;;;;;7.10;100.00;100576.13;6247485;22;20035;-95
2022/12/25 11:10:50;;;;;;;1.92;1.38;;;;;;;7.33;100.00;100587.47;6246680;22;20030;-95
2022/12/25 11:13:23;;;;;;;3.50;2.42;;;;;;;7.24;100.00;100589.84;6249422;22;20011;-94
2022/12/25 11:16:05;;;;;;;3.50;2.03;;;;;;;7.29;100.00;100589.44;6254455;22;20035;-95
2022/12/25 11:18:44;;;;;;;2.28;1.90;;;;;;;7.43;100.00;100585.84;6221317;22;20016;-95
2022/12/25 11:21:21;;;;;;;4.57;2.75;;;;;;;7.22;100.00;100559.13;6220082;22;20012;-96
2022/12/25 11:23:54;;;;;;;3.25;2.95;;;;;;;7.56;100.00;100588.94;6244500;22;20011;-95
2022/12/25 11:26:20;;;;;;;1.73;1.48;;;;;;;7.41;100.00;100555.09;6221139;22;20022;-96
2022/12/25 11:28:50;;;;;;;3.42;2.63;;;;;;;7.62;100.00;100581.78;6220948;22;20008;-96
2022/12/25 11:31:34;;;;;;;2.45;1.98;;;;;;;7.36;100.00;100530.69;6272309;22;20045;-96
2022/12/25 11:34:07;;;;;;;2.17;2.08;;;;;;;7.29;100.00;100525.19;6246873;22;20011;-95
2022/12/25 11:36:51;;;;;;;2.58;2.35;;;;;;;7.35;100.00;100515.31;6248733;22;20019;-95
2022/12/25 11:39:27;;;;;;;3.58;2.10;;;;;;;7.72;100.00;100559.63;6249594;22;20026;-95
2022/12/25 11:41:59;;;;;;;3.65;2.92;;;;;;;7.59;100.00;100516.34;6222817;22;20015;-96
2022/12/25 11:44:36;;;;;;;3.03;2.72;;;;;;;7.96;100.00;100557.88;6224145;22;20084;-95
2022/12/25 11:47:12;;;;;;;3.72;2.45;;;;;;;7.70;100.00;100504.03;6272994;22;20042;-95
2022/12/25 11:49:52;;;;;;;3.58;3.25;;;;;;;7.79;100.00;100523.69;6248913;22;20018;-96
2022/12/25 11:52:19;;;;;;;3.88;2.25;;;;;;;8.08;100.00;100535.28;6243495;22;20015;-95
2022/12/25 11:54:56;;;;;;;1.95;1.85;;;;;;;7.93;100.00;100515.25;6220688;22;20004;-96
2022/12/25 11:57:24;;;;;;;1.88;1.77;;;;;;;8.01;100.00;100529.03;6245224;22;20024;-96
2022/12/25 11:59:57;;;;;;;2.92;2.72;;;;;;;8.25;100.00;100548.13;6244417;22;19999;-96
2022/12/25 12:02:31;;;;;;;4.60;3.00;;;;;;;7.97;100.00;100504.19;6221791;22;20018;-96
2022/12/25 12:05:07;;;;;;;;;;;;;;;8.27;100.00;100548.53;6223319;22;20026;-95
2022/12/25 12:07:35;;;;;;;2.83;2.35;;;;;;;8.09;100.00;100511.22;6249223;22;19915;-96
2022/12/25 12:10:29;;;;;;;2.30;2.17;;;;;;;8.16;100.00;100511.94;6247127;22;20095;-95
2022/12/25 12:13:19;;;;;;;3.35;3.05;;;;;;;8.31;100.00;100513.38;6250071;22;20012;-95
2022/12/25 12:15:47;;;;;;;3.90;3.17;;;;;;;8.36;100.00;100514.91;6249402;22;20018;-96
2022/12/25 12:18:44;;;;;;;3.20;2.90;;;;;;;8.42;100.00;100502.19;6224147;22;20015;-95
2022/12/25 12:21:24;;;;;;;1.63;1.48;;;;;;;8.42;100.00;100496.69;6243555;22;20012;-96
2022/12/25 12:24:00;;;;;;;2.47;2.28;;;;;;;8.75;100.00;100531.06;6221619;22;20012;-94
2022/12/25 12:26:31;;;;;;;3.50;1.92;;;;;;;8.54;100.00;100501.69;6244163;22;20090;-96
2022/12/25 12:28:59;;;;;;;2.50;1.50;;;;;;;8.66;100.00;100503.13;6257551;22;20018;-94
2022/12/25 12:31:37;;;;;;;3.47;2.70;;;;;;;8.94;100.00;100535.97;6247719;22;20630;-93
2022/12/25 12:34:02;;;;;;;3.17;2.67;;;;;;;8.79;100.00;100521.53;6246214;22;20445;-95
2022/12/25 12:36:28;;;;;;;3.33;3.03;;;;;;;8.67;100.00;100504.69;6221133;22;20019;-95
2022/12/25 12:38:55;;;;;;;2.17;1.90;;;;;;;8.59;100.00;100511.50;6246681;22;20365;-94
2022/12/25 12:41:22;;;;;;;6.32;2.78;;;;;;;8.43;100.00;100504.56;6220912;22;20000;-95
2022/12/25 12:43:56;;;;;;;2.28;2.17;;;;;;;8.42;100.00;100494.69;6220755;22;20089;-96
2022/12/25 12:46:28;;;;;;;2.42;2.00;;;;;;;8.41;100.00;100511.72;6245909;22;20043;-94
2022/12/25 12:49:07;;;;;;;3.90;2.83;;;;;;;8.29;100.00;100488.13;6199547;22;20015;-94
2022/12/25 12:51:35;;;;;;;4.30;3.90;;;;;;;8.41;100.00;100504.19;6247074;22;20020;-95
2022/12/25 12:54:19;;;;;;;2.60;2.42;;;;;;;8.58;100.00;100523.75;6195795;22;20007;-93
2022/12/25 12:57:02;;;;;;;2.20;1.85;;;;;;;8.56;100.00;100509.56;6272021;22;20012;-93
2022/12/25 12:59:37;;;;;;;5.90;1.50;;;;;;;8.55;100.00;100505.22;6195269;22;20007;-94
2022/12/25 13:02:21;;;;;;;2.63;1.98;;;;;;;8.80;100.00;100519.56;6246868;22;20022;-94
2022/12/25 13:05:03;;;;;;;3.13;2.45;;;;;;;8.83;100.00;100513.19;6222666;22;20060;-94
2022/12/25 13:07:42;;;;;;;3.53;2.40;;;;;;;8.92;100.00;100519.03;6250845;22;20008;-93
2022/12/25 13:10:23;;;;;;;2.55;2.25;;;;;;;8.76;100.00;100494.72;6273466;22;20019;-94
2022/12/25 13:13:11;;;;;;;6.50;3.70;;;;;;;8.86;100.00;100499.31;6248521;22;20098;-94
2022/12/25 13:15:37;;;;;;;2.75;2.30;;;;;;;9.04;100.00;100510.19;6222393;22;20346;-94
2022/12/25 13:18:05;;;;;;;1.38;1.27;;;;;;;8.99;100.00;100479.41;6223313;22;20452;-94
2022/12/25 13:20:55;;;;;;;2.67;2.13;;;;;;;9.06;100.00;100491.16;6222892;22;20026;-95
2022/12/25 13:23:29;;;;;;;3.08;2.53;;;;;;;9.27;100.00;100518.56;6222753;22;20078;-94
2022/12/25 13:26:14;;;;;;;2.08;1.92;;;;;;;9.29;100.00;100507.88;6254017;22;20016;-95
2022/12/25 13:28:40;;;;;;;2.65;2.45;;;;;;;9.25;100.00;100504.38;6267945;22;20031;-94
2022/12/25 13:31:06;;;;;;;2.25;1.88;;;;;;;9.54;100.00;100529.66;6247684;22;20372;-95
2022/12/25 13:33:32;;;;;;;1.75;1.65;;;;;;;9.36;100.00;100498.66;6251452;22;20011;-95
2022/12/25 13:35:57;;;;;;;2.70;2.03;;;;;;;9.51;100.00;100521.38;6251994;22;20099;-95
2022/12/25 13:38:25;;;;;;;1.92;1.70;;;;;;;9.30;100.00;100478.22;6228591;22;20015;-93
2022/12/25 13:43:40;;;;;;;1.88;1.75;;;;;;;9.48;100.00;100492.56;6256064;22;20449;-93
2022/12/25 13:46:07;;;;;;;1.45;1.35;;;;;;;9.45;100.00;100489.84;6253658;22;20023;-96
2022/12/25 13:48:32;;;;;;;3.53;2.30;;;;;;;9.44;100.00;100477.19;6237355;22;20023;-96
2022/12/25 13:51:00;;;;;;;1.38;1.27;;;;;;;9.56;100.00;100499.56;6248481;22;19995;-94
2022/12/25 13:53:26;;;;;;;1.83;1.73;;;;;;;9.37;100.00;100491.94;6223958;22;20012;-94
2022/12/25 13:55:53;;;;;;;1.60;1.30;;;;;;;9.31;100.00;100483.31;6247616;22;20030;-93
2022/12/25 13:58:26;;;;;;;3.33;2.88;;;;;;;9.48;100.00;100516.69;6222723;22;20007;-95
2022/12/25 14:00:54;;;;;;;2.30;2.10;;;;;;;9.46;100.00;100517.13;6221947;22;20015;-94
2022/12/25 14:03:24;;;;;;;4.10;2.55;;;;;;;9.42;100.00;100519.16;6226619;22;20373;-96
2022/12/25 14:05:57;;;;;;;1.35;1.23;;;;;;;9.35;100.00;100508.94;6253306;22;20067;-94
2022/12/25 14:08:30;;;;;;;1.60;1.50;;;;;;;9.26;100.00;100503.13;6271963;22;20018;-93
2022/12/25 14:10:57;;;;;;;1.67;1.58;;;;;;;9.15;100.00;100498.97;6222652;22;20091;-92
2022/12/25 14:13:26;;;;;;;3.30;2.30;;;;;;;9.11;100.00;100503.75;6247862;22;20016;-93
2022/12/25 14:15:54;;;;;;;3.58;2.28;;;;;;;9.18;100.00;100523.81;6247169;22;20141;-93
2022/12/25 14:18:21;;;;;;;1.95;1.67;;;;;;;9.12;100.00;100521.94;6222630;22;20000;-92
2022/12/25 14:21:00;;;;;;;3.97;2.13;;;;;;;9.10;100.00;100518.81;6221878;22;20065;-93
2022/12/25 14:23:30;;;;;;;1.30;1.23;;;;;;;8.93;100.00;100504.00;6196301;22;20023;-93
2022/12/25 14:25:55;;;;;;;3.38;2.53;;;;;;;8.91;100.00;100509.16;6223746;22;20012;-92
2022/12/25 14:28:25;;;;;;;1.55;1.45;;;;;;;8.76;100.00;100497.50;6247455;22;20007;-93
2022/12/25 14:30:52;;;;;;;2.85;1.35;;;;;;;8.69;100.00;100482.97;6222191;22;20038;-94
2022/12/25 14:33:20;;;;;;;2.53;1.90;;;;;;;8.85;100.00;100513.59;6247184;22;20053;-93
2022/12/25 14:35:46;;;;;;;3.63;3.08;;;;;;;8.68;100.00;100489.69;6247053;22;20011;-93
2022/12/25 14:38:33;;;;;;;1.63;1.50;;;;;;;8.82;100.00;100520.72;6247323;22;20016;-91
2022/12/25 14:41:32;;;;;;;3.35;3.05;;;;;;;8.77;100.00;100496.28;6274254;22;20027;-93
2022/12/25 14:44:41;;;;;;;1.35;1.25;;;;;;;8.55;100.00;100461.00;6261701;22;20018;-96
2022/12/25 14:47:13;;;;;;;1.73;1.63;;;;;;;8.76;100.00;100499.47;6275590;22;20022;-96
2022/12/25 14:50:45;;;;;;;2.88;2.42;;;;;;;8.41;100.00;100453.66;6246816;22;20042;-94
2022/12/25 15:04:09;;;;;;;1.77;1.65;;;;;;;8.52;100.00;100511.59;6316469;22;20023;-93
2022/12/25 15:06:38;;;;;;;2.65;2.22;;;;;;;8.43;100.00;100501.81;6252160;22;20030;-93
2022/12/25 15:09:14;;;;;;;1.45;1.35;;;;;;;8.41;100.00;100504.19;6227173;22;20017;-93
2022/12/25 15:11:42;;;;;;;0.52;0.52;;;;;;;8.41;100.00;100495.13;6252543;22;20428;-92
2022/12/25 15:14:07;;;;;;;0.73;0.73;;;;;;;8.21;100.00;100470.00;6226810;22;20026;-93
2022/12/25 15:16:40;;;;;;;3.30;2.38;;;;;;;8.14;100.00;100466.53;6251703;22;20019;-94
2022/12/25 15:19:07;;;;;;;2.42;1.33;;;;;;;8.22;100.00;100499.22;6251854;22;20019;-94
2022/12/25 15:24:24;;;;;;;0.68;0.68;;;;;;;7.98;100.00;100478.13;6305238;22;20026;-93
2022/12/25 15:26:54;;;;;;;1.27;0.57;;;;;;;7.97;100.00;100488.41;6277344;22;20011;-94
2022/12/25 15:29:20;;;;;;;1.83;1.73;;;;;;;7.98;100.00;100500.25;6227882;22;19999;-93
2022/12/25 15:31:45;;;;;;;0.52;0.45;;;;;;;7.94;100.00;100499.47;6226567;22;20011;-94
2022/12/25 15:34:25;;;;;;;1.42;1.35;;;;;;;7.84;100.00;100489.31;6226941;22;20030;-93
2022/12/25 15:36:51;;;;;;;4.70;3.20;;;;;;;7.90;100.00;100505.03;6228217;22;20015;-92
2022/12/25 15:39:17;;;;;;;2.42;1.35;;;;;;;7.62;100.00;100480.41;6253174;22;20003;-92
2022/12/25 18:27:13;;;;;;;1.27;1.02;;;;;;;6.47;100.00;100444.81;6300068;22;20046;-92
2022/12/25 18:29:58;;;;;;;1.90;1.77;;;;;;;6.79;100.00;100486.84;6256955;22;20025;-92
2022/12/25 19:23:42;;;;;;;2.10;1.90;;;;;;;6.01;100.00;100426.47;6278696;22;20019;-90
2022/12/25 19:26:09;;;;;;;0.98;0.90;;;;;;;6.07;100.00;100441.38;6276433;22;20437;-90